sensor_id;sensor_type;location;lat;lon;timestamp;temperature;humidity
56332;DHT22;42237;53.340;6.812;2022-10-12T00:01:09;7.70;99.90
56332;DHT22;42237;53.340;6.812;2022-10-12T00:03:35;7.70;99.90
56332;DHT22;42237;53.340;6.812;2022-10-12T00:06:17;7.70;99.90
56332;DHT22;42237;53.340;6.812;2022-10-12T00:08:44;7.70;99.90
56332;DHT22;42237;53.340;6.812;2022-10-12T00:11:22;7.90;99.90
56332;DHT22;42237;53.340;6.812;2022-10-12T00:13:49;7.70;99.90
56332;DHT22;42237;53.340;6.812;2022-10-12T00:16:16;7.80;99.90
56332;DHT22;42237;53.340;6.812;2022-10-12T00:18:42;7.80;99.90
56332;DHT22;42237;53.340;6.812;2022-10-12T00:21:14;7.80;99.90
56332;DHT22;42237;53.340;6.812;2022-10-12T00:23:40;7.80;99.90
56332;DHT22;42237;53.340;6.812;2022-10-12T00:26:12;7.70;99.90
56332;DHT22;42237;53.340;6.812;2022-10-12T00:28:38;7.80;99.90
56332;DHT22;42237;53.340;6.812;2022-10-12T00:31:09;7.80;99.90
56332;DHT22;42237;53.340;6.812;2022-10-12T00:33:35;7.80;99.90
56332;DHT22;42237;53.340;6.812;2022-10-12T00:36:25;7.70;99.90
56332;DHT22;42237;53.340;6.812;2022-10-12T00:38:52;7.70;99.90
56332;DHT22;42237;53.340;6.812;2022-10-12T00:41:20;7.70;99.90
56332;DHT22;42237;53.340;6.812;2022-10-12T00:43:48;7.70;99.90
56332;DHT22;42237;53.340;6.812;2022-10-12T00:48:58;7.60;99.90
56332;DHT22;42237;53.340;6.812;2022-10-12T00:51:24;7.60;99.90
56332;DHT22;42237;53.340;6.812;2022-10-12T00:53:58;7.60;99.90
56332;DHT22;42237;53.340;6.812;2022-10-12T00:56:26;7.60;99.90
56332;DHT22;42237;53.340;6.812;2022-10-12T00:58:57;7.40;99.90
56332;DHT22;42237;53.340;6.812;2022-10-12T01:01:24;7.50;99.90
56332;DHT22;42237;53.340;6.812;2022-10-12T01:03:50;7.50;99.90
56332;DHT22;42237;53.340;6.812;2022-10-12T01:06:16;7.40;99.90
56332;DHT22;42237;53.340;6.812;2022-10-12T01:08:42;7.40;99.90
56332;DHT22;42237;53.340;6.812;2022-10-12T01:11:08;7.80;99.90
56332;DHT22;42237;53.340;6.812;2022-10-12T01:13:34;7.60;99.90
56332;DHT22;42237;53.340;6.812;2022-10-12T01:16:18;7.30;99.90
56332;DHT22;42237;53.340;6.812;2022-10-12T01:18:56;7.30;99.90
56332;DHT22;42237;53.340;6.812;2022-10-12T01:21:26;7.30;99.90
56332;DHT22;42237;53.340;6.812;2022-10-12T01:32:30;7.20;99.90
56332;DHT22;42237;53.340;6.812;2022-10-12T01:37:43;7.10;99.90
56332;DHT22;42237;53.340;6.812;2022-10-12T01:40:15;7.10;99.90
56332;DHT22;42237;53.340;6.812;2022-10-12T01:42:43;7.10;99.90
56332;DHT22;42237;53.340;6.812;2022-10-12T01:45:15;7.00;99.90
56332;DHT22;42237;53.340;6.812;2022-10-12T01:47:44;7.10;99.90
56332;DHT22;42237;53.340;6.812;2022-10-12T01:50:13;7.10;99.90
56332;DHT22;42237;53.340;6.812;2022-10-12T01:53:08;7.10;99.90
56332;DHT22;42237;53.340;6.812;2022-10-12T01:58:19;7.00;99.90
56332;DHT22;42237;53.340;6.812;2022-10-12T02:06:13;7.00;99.90
56332;DHT22;42237;53.340;6.812;2022-10-12T02:11:19;7.00;99.90
56332;DHT22;42237;53.340;6.812;2022-10-12T02:13:53;7.00;99.90
56332;DHT22;42237;53.340;6.812;2022-10-12T02:16:26;7.00;99.90
56332;DHT22;42237;53.340;6.812;2022-10-12T02:18:54;7.00;99.90
56332;DHT22;42237;53.340;6.812;2022-10-12T02:21:29;7.00;99.90
56332;DHT22;42237;53.340;6.812;2022-10-12T02:23:57;6.90;99.90
56332;DHT22;42237;53.340;6.812;2022-10-12T02:26:24;7.00;99.90
56332;DHT22;42237;53.340;6.812;2022-10-12T02:28:50;6.90;99.90
56332;DHT22;42237;53.340;6.812;2022-10-12T02:31:36;6.90;99.90
56332;DHT22;42237;53.340;6.812;2022-10-12T02:36:41;7.00;99.90
56332;DHT22;42237;53.340;6.812;2022-10-12T02:41:50;7.50;99.90
56332;DHT22;42237;53.340;6.812;2022-10-12T02:44:21;7.10;99.90
56332;DHT22;42237;53.340;6.812;2022-10-12T02:46:49;7.10;99.90
56332;DHT22;42237;53.340;6.812;2022-10-12T02:49:17;7.10;99.90
56332;DHT22;42237;53.340;6.812;2022-10-12T02:51:44;8.00;99.90
56332;DHT22;42237;53.340;6.812;2022-10-12T02:54:11;7.20;99.90
56332;DHT22;42237;53.340;6.812;2022-10-12T02:56:44;7.20;99.90
56332;DHT22;42237;53.340;6.812;2022-10-12T02:59:11;7.40;99.90
56332;DHT22;42237;53.340;6.812;2022-10-12T03:01:37;7.20;99.90
56332;DHT22;42237;53.340;6.812;2022-10-12T03:04:03;7.10;99.90
56332;DHT22;42237;53.340;6.812;2022-10-12T03:06:28;7.20;99.90
56332;DHT22;42237;53.340;6.812;2022-10-12T03:08:54;7.40;99.90
56332;DHT22;42237;53.340;6.812;2022-10-12T03:11:22;7.30;99.90
56332;DHT22;42237;53.340;6.812;2022-10-12T03:13:51;7.20;99.90
56332;DHT22;42237;53.340;6.812;2022-10-12T03:16:17;7.30;99.90
56332;DHT22;42237;53.340;6.812;2022-10-12T03:18:42;7.20;99.90
56332;DHT22;42237;53.340;6.812;2022-10-12T03:21:08;7.20;99.90
56332;DHT22;42237;53.340;6.812;2022-10-12T03:23:35;7.30;99.90
56332;DHT22;42237;53.340;6.812;2022-10-12T03:26:02;7.30;99.90
56332;DHT22;42237;53.340;6.812;2022-10-12T03:28:28;7.30;99.90
56332;DHT22;42237;53.340;6.812;2022-10-12T03:30:54;7.40;99.90
56332;DHT22;42237;53.340;6.812;2022-10-12T03:33:20;7.40;99.90
56332;DHT22;42237;53.340;6.812;2022-10-12T03:35:45;7.80;99.90
56332;DHT22;42237;53.340;6.812;2022-10-12T03:38:12;7.40;99.90
56332;DHT22;42237;53.340;6.812;2022-10-12T03:40:39;7.40;99.90
56332;DHT22;42237;53.340;6.812;2022-10-12T03:43:05;7.40;99.90
56332;DHT22;42237;53.340;6.812;2022-10-12T03:45:31;7.40;99.90
56332;DHT22;42237;53.340;6.812;2022-10-12T03:47:57;7.30;99.90
56332;DHT22;42237;53.340;6.812;2022-10-12T03:50:22;7.20;99.90
56332;DHT22;42237;53.340;6.812;2022-10-12T03:52:48;7.10;99.90
56332;DHT22;42237;53.340;6.812;2022-10-12T03:55:14;7.10;99.90
56332;DHT22;42237;53.340;6.812;2022-10-12T03:57:40;7.10;99.90
56332;DHT22;42237;53.340;6.812;2022-10-12T04:00:06;7.10;99.90
56332;DHT22;42237;53.340;6.812;2022-10-12T04:02:32;7.00;99.90
56332;DHT22;42237;53.340;6.812;2022-10-12T04:04:57;7.00;99.90
56332;DHT22;42237;53.340;6.812;2022-10-12T04:07:24;7.30;99.90
56332;DHT22;42237;53.340;6.812;2022-10-12T04:09:49;7.00;99.90
56332;DHT22;42237;53.340;6.812;2022-10-12T04:12:15;6.90;99.90
56332;DHT22;42237;53.340;6.812;2022-10-12T04:14:41;6.90;99.90
56332;DHT22;42237;53.340;6.812;2022-10-12T04:17:06;6.90;99.90
56332;DHT22;42237;53.340;6.812;2022-10-12T04:19:32;6.80;99.90
56332;DHT22;42237;53.340;6.812;2022-10-12T04:21:58;6.80;99.90
56332;DHT22;42237;53.340;6.812;2022-10-12T04:24:24;7.00;99.90
56332;DHT22;42237;53.340;6.812;2022-10-12T04:26:49;6.90;99.90
56332;DHT22;42237;53.340;6.812;2022-10-12T04:29:15;6.90;99.90
56332;DHT22;42237;53.340;6.812;2022-10-12T04:31:41;7.00;99.90
56332;DHT22;42237;53.340;6.812;2022-10-12T04:34:08;7.20;99.90
56332;DHT22;42237;53.340;6.812;2022-10-12T04:36:34;7.00;99.90
56332;DHT22;42237;53.340;6.812;2022-10-12T04:39:00;7.00;99.90
56332;DHT22;42237;53.340;6.812;2022-10-12T04:41:25;7.50;99.90
56332;DHT22;42237;53.340;6.812;2022-10-12T04:43:54;7.00;99.90
56332;DHT22;42237;53.340;6.812;2022-10-12T04:46:20;7.00;99.90
56332;DHT22;42237;53.340;6.812;2022-10-12T04:48:46;7.00;99.90
56332;DHT22;42237;53.340;6.812;2022-10-12T04:51:12;7.10;99.90
56332;DHT22;42237;53.340;6.812;2022-10-12T04:53:38;7.00;99.90
56332;DHT22;42237;53.340;6.812;2022-10-12T04:56:04;7.00;99.90
56332;DHT22;42237;53.340;6.812;2022-10-12T04:58:31;7.00;99.90
56332;DHT22;42237;53.340;6.812;2022-10-12T05:00:57;7.00;99.90
56332;DHT22;42237;53.340;6.812;2022-10-12T05:03:23;7.00;99.90
56332;DHT22;42237;53.340;6.812;2022-10-12T05:05:49;7.00;99.90
56332;DHT22;42237;53.340;6.812;2022-10-12T05:08:15;7.00;99.90
56332;DHT22;42237;53.340;6.812;2022-10-12T05:10:40;7.00;99.90
56332;DHT22;42237;53.340;6.812;2022-10-12T05:13:06;6.90;99.90
56332;DHT22;42237;53.340;6.812;2022-10-12T05:15:32;7.20;99.90
56332;DHT22;42237;53.340;6.812;2022-10-12T05:17:57;7.00;99.90
56332;DHT22;42237;53.340;6.812;2022-10-12T05:20:23;6.90;99.90
56332;DHT22;42237;53.340;6.812;2022-10-12T05:22:49;6.90;99.90
56332;DHT22;42237;53.340;6.812;2022-10-12T05:25:15;6.90;99.90
56332;DHT22;42237;53.340;6.812;2022-10-12T05:27:40;6.90;99.90
56332;DHT22;42237;53.340;6.812;2022-10-12T05:30:07;6.80;99.90
56332;DHT22;42237;53.340;6.812;2022-10-12T05:32:33;6.80;99.90
56332;DHT22;42237;53.340;6.812;2022-10-12T05:34:58;6.80;99.90
56332;DHT22;42237;53.340;6.812;2022-10-12T05:37:24;6.80;99.90
56332;DHT22;42237;53.340;6.812;2022-10-12T05:39:50;7.10;99.90
56332;DHT22;42237;53.340;6.812;2022-10-12T05:42:16;6.00;99.90
56332;DHT22;42237;53.340;6.812;2022-10-12T05:44:42;6.70;99.90
56332;DHT22;42237;53.340;6.812;2022-10-12T05:47:08;6.70;99.90
56332;DHT22;42237;53.340;6.812;2022-10-12T05:49:34;6.70;99.90
56332;DHT22;42237;53.340;6.812;2022-10-12T05:52:00;6.70;99.90
56332;DHT22;42237;53.340;6.812;2022-10-12T05:54:26;6.70;99.90
56332;DHT22;42237;53.340;6.812;2022-10-12T05:56:52;6.70;99.90
56332;DHT22;42237;53.340;6.812;2022-10-12T05:59:18;6.70;99.90
56332;DHT22;42237;53.340;6.812;2022-10-12T06:01:43;6.70;99.90
56332;DHT22;42237;53.340;6.812;2022-10-12T06:04:09;6.70;99.90
56332;DHT22;42237;53.340;6.812;2022-10-12T06:06:37;7.10;99.90
56332;DHT22;42237;53.340;6.812;2022-10-12T06:09:03;6.70;99.90
56332;DHT22;42237;53.340;6.812;2022-10-12T06:11:29;6.70;99.90
56332;DHT22;42237;53.340;6.812;2022-10-12T06:13:55;6.70;99.90
56332;DHT22;42237;53.340;6.812;2022-10-12T06:16:20;6.70;99.90
56332;DHT22;42237;53.340;6.812;2022-10-12T06:18:48;6.70;99.90
56332;DHT22;42237;53.340;6.812;2022-10-12T06:21:13;6.70;99.90
56332;DHT22;42237;53.340;6.812;2022-10-12T06:23:39;6.70;99.90
56332;DHT22;42237;53.340;6.812;2022-10-12T06:26:05;6.70;99.90
56332;DHT22;42237;53.340;6.812;2022-10-12T06:28:31;6.70;99.90
56332;DHT22;42237;53.340;6.812;2022-10-12T06:30:59;7.10;99.90
56332;DHT22;42237;53.340;6.812;2022-10-12T06:33:25;6.70;99.90
56332;DHT22;42237;53.340;6.812;2022-10-12T06:35:52;6.70;99.90
56332;DHT22;42237;53.340;6.812;2022-10-12T06:38:18;7.20;99.90
56332;DHT22;42237;53.340;6.812;2022-10-12T06:40:44;7.00;99.90
56332;DHT22;42237;53.340;6.812;2022-10-12T06:43:10;6.70;99.90
56332;DHT22;42237;53.340;6.812;2022-10-12T06:45:36;6.70;99.90
56332;DHT22;42237;53.340;6.812;2022-10-12T06:48:03;6.70;99.90
56332;DHT22;42237;53.340;6.812;2022-10-12T06:50:29;6.80;99.90
56332;DHT22;42237;53.340;6.812;2022-10-12T06:52:55;6.80;99.90
56332;DHT22;42237;53.340;6.812;2022-10-12T06:55:20;6.80;99.90
56332;DHT22;42237;53.340;6.812;2022-10-12T06:57:46;6.90;99.90
56332;DHT22;42237;53.340;6.812;2022-10-12T07:00:12;7.40;99.90
56332;DHT22;42237;53.340;6.812;2022-10-12T07:02:38;6.90;99.90
56332;DHT22;42237;53.340;6.812;2022-10-12T07:05:05;7.00;99.90
56332;DHT22;42237;53.340;6.812;2022-10-12T07:07:33;6.90;99.90
56332;DHT22;42237;53.340;6.812;2022-10-12T07:09:58;6.90;99.90
56332;DHT22;42237;53.340;6.812;2022-10-12T07:12:24;6.90;99.90
56332;DHT22;42237;53.340;6.812;2022-10-12T07:14:50;7.00;99.90
56332;DHT22;42237;53.340;6.812;2022-10-12T07:17:16;7.00;99.90
56332;DHT22;42237;53.340;6.812;2022-10-12T07:19:41;7.30;99.90
56332;DHT22;42237;53.340;6.812;2022-10-12T07:22:07;7.90;99.90
56332;DHT22;42237;53.340;6.812;2022-10-12T07:24:33;7.20;99.90
56332;DHT22;42237;53.340;6.812;2022-10-12T07:27:03;7.60;99.90
56332;DHT22;42237;53.340;6.812;2022-10-12T07:29:30;7.30;99.90
56332;DHT22;42237;53.340;6.812;2022-10-12T07:31:57;7.30;99.90
56332;DHT22;42237;53.340;6.812;2022-10-12T07:34:24;7.40;99.90
56332;DHT22;42237;53.340;6.812;2022-10-12T07:36:50;7.40;99.90
56332;DHT22;42237;53.340;6.812;2022-10-12T07:39:15;7.50;99.90
56332;DHT22;42237;53.340;6.812;2022-10-12T07:41:44;7.60;99.90
56332;DHT22;42237;53.340;6.812;2022-10-12T07:44:10;7.60;99.90
56332;DHT22;42237;53.340;6.812;2022-10-12T07:46:36;7.70;99.90
56332;DHT22;42237;53.340;6.812;2022-10-12T07:49:03;7.90;99.90
56332;DHT22;42237;53.340;6.812;2022-10-12T07:51:28;8.50;99.90
56332;DHT22;42237;53.340;6.812;2022-10-12T07:53:54;7.90;99.90
56332;DHT22;42237;53.340;6.812;2022-10-12T07:56:20;7.60;99.90
56332;DHT22;42237;53.340;6.812;2022-10-12T07:58:52;8.00;99.90
56332;DHT22;42237;53.340;6.812;2022-10-12T08:01:19;8.00;99.90
56332;DHT22;42237;53.340;6.812;2022-10-12T08:03:46;8.30;99.90
56332;DHT22;42237;53.340;6.812;2022-10-12T08:06:15;8.20;99.90
56332;DHT22;42237;53.340;6.812;2022-10-12T08:08:43;8.30;99.90
56332;DHT22;42237;53.340;6.812;2022-10-12T08:11:09;8.30;99.90
56332;DHT22;42237;53.340;6.812;2022-10-12T08:13:36;8.30;99.90
56332;DHT22;42237;53.340;6.812;2022-10-12T08:16:03;8.40;99.90
56332;DHT22;42237;53.340;6.812;2022-10-12T08:18:30;8.40;99.90
56332;DHT22;42237;53.340;6.812;2022-10-12T08:20:56;8.50;99.90
56332;DHT22;42237;53.340;6.812;2022-10-12T08:23:21;8.50;99.90
56332;DHT22;42237;53.340;6.812;2022-10-12T08:25:54;8.50;99.90
56332;DHT22;42237;53.340;6.812;2022-10-12T08:28:21;8.60;99.90
56332;DHT22;42237;53.340;6.812;2022-10-12T08:30:46;8.70;99.90
56332;DHT22;42237;53.340;6.812;2022-10-12T08:33:12;8.70;99.90
56332;DHT22;42237;53.340;6.812;2022-10-12T08:35:39;8.80;99.90
56332;DHT22;42237;53.340;6.812;2022-10-12T08:38:05;8.80;99.90
56332;DHT22;42237;53.340;6.812;2022-10-12T08:40:35;8.90;99.90
56332;DHT22;42237;53.340;6.812;2022-10-12T08:43:07;9.00;99.90
56332;DHT22;42237;53.340;6.812;2022-10-12T08:45:55;9.00;99.90
56332;DHT22;42237;53.340;6.812;2022-10-12T08:48:27;9.10;99.90
56332;DHT22;42237;53.340;6.812;2022-10-12T08:51:01;9.20;99.90
56332;DHT22;42237;53.340;6.812;2022-10-12T08:53:31;9.30;99.90
56332;DHT22;42237;53.340;6.812;2022-10-12T08:55:57;9.40;99.90
56332;DHT22;42237;53.340;6.812;2022-10-12T08:58:30;9.50;99.90
56332;DHT22;42237;53.340;6.812;2022-10-12T09:01:23;9.60;99.90
56332;DHT22;42237;53.340;6.812;2022-10-12T09:06:48;9.90;99.90
56332;DHT22;42237;53.340;6.812;2022-10-12T09:09:30;10.00;99.90
56332;DHT22;42237;53.340;6.812;2022-10-12T09:12:24;10.10;99.90
56332;DHT22;42237;53.340;6.812;2022-10-12T09:14:56;10.20;99.90
56332;DHT22;42237;53.340;6.812;2022-10-12T09:17:29;10.30;99.90
56332;DHT22;42237;53.340;6.812;2022-10-12T09:20:13;10.50;99.90
56332;DHT22;42237;53.340;6.812;2022-10-12T09:22:42;10.60;99.90
56332;DHT22;42237;53.340;6.812;2022-10-12T09:25:14;10.70;99.90
56332;DHT22;42237;53.340;6.812;2022-10-12T09:27:43;10.80;99.90
56332;DHT22;42237;53.340;6.812;2022-10-12T09:30:13;10.80;99.90
56332;DHT22;42237;53.340;6.812;2022-10-12T09:35:22;11.00;99.90
56332;DHT22;42237;53.340;6.812;2022-10-12T09:37:51;11.10;99.90
56332;DHT22;42237;53.340;6.812;2022-10-12T09:40:36;11.20;99.90
56332;DHT22;42237;53.340;6.812;2022-10-12T09:43:02;11.30;99.90
56332;DHT22;42237;53.340;6.812;2022-10-12T09:45:30;11.30;99.90
56332;DHT22;42237;53.340;6.812;2022-10-12T09:50:57;11.40;99.90
56332;DHT22;42237;53.340;6.812;2022-10-12T09:53:25;11.50;99.90
56332;DHT22;42237;53.340;6.812;2022-10-12T09:56:02;11.50;99.90
56332;DHT22;42237;53.340;6.812;2022-10-12T09:58:28;11.50;99.90
56332;DHT22;42237;53.340;6.812;2022-10-12T10:01:17;11.50;99.90
56332;DHT22;42237;53.340;6.812;2022-10-12T10:03:48;11.60;99.90
56332;DHT22;42237;53.340;6.812;2022-10-12T10:06:22;11.60;99.90
56332;DHT22;42237;53.340;6.812;2022-10-12T10:08:49;11.70;99.90
56332;DHT22;42237;53.340;6.812;2022-10-12T10:11:20;11.70;99.90
56332;DHT22;42237;53.340;6.812;2022-10-12T10:13:50;11.80;99.90
56332;DHT22;42237;53.340;6.812;2022-10-12T10:16:17;11.80;99.90
56332;DHT22;42237;53.340;6.812;2022-10-12T10:19:12;11.80;99.90
56332;DHT22;42237;53.340;6.812;2022-10-12T10:21:40;11.90;99.90
56332;DHT22;42237;53.340;6.812;2022-10-12T10:24:24;12.00;99.90
56332;DHT22;42237;53.340;6.812;2022-10-12T10:27:02;12.00;99.90
56332;DHT22;42237;53.340;6.812;2022-10-12T10:32:17;12.10;99.90
56332;DHT22;42237;53.340;6.812;2022-10-12T10:37:55;12.10;99.90
56332;DHT22;42237;53.340;6.812;2022-10-12T10:40:40;12.20;99.90
56332;DHT22;42237;53.340;6.812;2022-10-12T10:43:29;12.20;99.90
56332;DHT22;42237;53.340;6.812;2022-10-12T10:46:25;12.30;99.90
56332;DHT22;42237;53.340;6.812;2022-10-12T10:48:54;12.30;99.90
56332;DHT22;42237;53.340;6.812;2022-10-12T10:57:05;12.40;99.90
56332;DHT22;42237;53.340;6.812;2022-10-12T11:02:08;12.40;99.90
56332;DHT22;42237;53.340;6.812;2022-10-12T11:04:40;12.50;99.90
56332;DHT22;42237;53.340;6.812;2022-10-12T11:09:43;12.60;99.90
56332;DHT22;42237;53.340;6.812;2022-10-12T11:12:20;12.70;99.90
56332;DHT22;42237;53.340;6.812;2022-10-12T11:14:52;12.70;99.90
56332;DHT22;42237;53.340;6.812;2022-10-12T11:22:48;12.80;99.90
56332;DHT22;42237;53.340;6.812;2022-10-12T11:27:46;12.90;99.90
56332;DHT22;42237;53.340;6.812;2022-10-12T11:30:20;12.90;99.90
56332;DHT22;42237;53.340;6.812;2022-10-12T11:33:20;12.90;99.90
56332;DHT22;42237;53.340;6.812;2022-10-12T11:35:47;12.90;99.90
56332;DHT22;42237;53.340;6.812;2022-10-12T11:38:19;12.90;99.90
56332;DHT22;42237;53.340;6.812;2022-10-12T11:41:03;12.90;99.90
56332;DHT22;42237;53.340;6.812;2022-10-12T11:43:54;13.00;99.90
56332;DHT22;42237;53.340;6.812;2022-10-12T11:46:39;13.00;99.90
56332;DHT22;42237;53.340;6.812;2022-10-12T11:49:28;13.00;99.90
56332;DHT22;42237;53.340;6.812;2022-10-12T11:51:58;13.10;99.90
56332;DHT22;42237;53.340;6.812;2022-10-12T11:54:36;13.10;99.90
56332;DHT22;42237;53.340;6.812;2022-10-12T11:57:10;13.20;99.90
56332;DHT22;42237;53.340;6.812;2022-10-12T11:59:41;13.20;99.90
56332;DHT22;42237;53.340;6.812;2022-10-12T12:02:22;13.20;99.90
56332;DHT22;42237;53.340;6.812;2022-10-12T12:04:50;13.20;99.90
56332;DHT22;42237;53.340;6.812;2022-10-12T12:16:25;13.30;99.90
56332;DHT22;42237;53.340;6.812;2022-10-12T12:19:33;13.30;99.90
56332;DHT22;42237;53.340;6.812;2022-10-12T12:28:15;12.90;99.90
56332;DHT22;42237;53.340;6.812;2022-10-12T12:31:16;13.40;99.90
56332;DHT22;42237;53.340;6.812;2022-10-12T12:33:47;13.40;99.90
56332;DHT22;42237;53.340;6.812;2022-10-12T12:36:37;13.40;99.90
56332;DHT22;42237;53.340;6.812;2022-10-12T12:39:07;13.50;99.90
56332;DHT22;42237;53.340;6.812;2022-10-12T12:44:40;13.40;99.90
56332;DHT22;42237;53.340;6.812;2022-10-12T12:47:21;13.40;99.90
56332;DHT22;42237;53.340;6.812;2022-10-12T12:50:25;13.50;99.90
56332;DHT22;42237;53.340;6.812;2022-10-12T12:52:50;13.50;99.90
56332;DHT22;42237;53.340;6.812;2022-10-12T12:55:28;13.60;99.90
56332;DHT22;42237;53.340;6.812;2022-10-12T12:58:19;13.60;99.90
56332;DHT22;42237;53.340;6.812;2022-10-12T13:13:49;13.80;99.90
56332;DHT22;42237;53.340;6.812;2022-10-12T13:19:23;13.80;99.90
56332;DHT22;42237;53.340;6.812;2022-10-12T13:21:51;13.80;99.90
56332;DHT22;42237;53.340;6.812;2022-10-12T13:24:30;13.90;99.90
56332;DHT22;42237;53.340;6.812;2022-10-12T13:27:19;13.90;99.90
56332;DHT22;42237;53.340;6.812;2022-10-12T13:29:58;14.00;99.90
56332;DHT22;42237;53.340;6.812;2022-10-12T13:32:39;14.10;99.90
56332;DHT22;42237;53.340;6.812;2022-10-12T13:37:59;14.20;99.90
56332;DHT22;42237;53.340;6.812;2022-10-12T13:40:36;14.10;99.90
56332;DHT22;42237;53.340;6.812;2022-10-12T13:45:52;14.20;99.90
56332;DHT22;42237;53.340;6.812;2022-10-12T13:48:21;14.20;99.90
56332;DHT22;42237;53.340;6.812;2022-10-12T13:50:58;14.20;99.90
56332;DHT22;42237;53.340;6.812;2022-10-12T13:53:32;14.20;99.90
56332;DHT22;42237;53.340;6.812;2022-10-12T13:56:16;14.10;99.90
56332;DHT22;42237;53.340;6.812;2022-10-12T13:58:43;14.20;99.90
56332;DHT22;42237;53.340;6.812;2022-10-12T14:01:13;14.10;99.90
56332;DHT22;42237;53.340;6.812;2022-10-12T14:03:43;14.20;99.90
56332;DHT22;42237;53.340;6.812;2022-10-12T14:06:30;14.10;99.90
56332;DHT22;42237;53.340;6.812;2022-10-12T14:09:14;14.10;99.90
56332;DHT22;42237;53.340;6.812;2022-10-12T14:11:42;14.10;99.90
56332;DHT22;42237;53.340;6.812;2022-10-12T14:14:23;14.10;99.90
56332;DHT22;42237;53.340;6.812;2022-10-12T14:16:50;14.00;99.90
56332;DHT22;42237;53.340;6.812;2022-10-12T14:20:13;14.00;99.90
56332;DHT22;42237;53.340;6.812;2022-10-12T14:22:03;14.00;99.90
56332;DHT22;42237;53.340;6.812;2022-10-12T14:24:29;14.00;99.90
56332;DHT22;42237;53.340;6.812;2022-10-12T14:27:00;14.00;99.90
56332;DHT22;42237;53.340;6.812;2022-10-12T14:32:34;14.00;99.90
56332;DHT22;42237;53.340;6.812;2022-10-12T14:37:36;14.00;99.90
56332;DHT22;42237;53.340;6.812;2022-10-12T14:40:32;14.00;99.90
56332;DHT22;42237;53.340;6.812;2022-10-12T14:45:24;14.00;99.90
56332;DHT22;42237;53.340;6.812;2022-10-12T14:47:50;14.00;99.90
56332;DHT22;42237;53.340;6.812;2022-10-12T14:50:19;14.00;99.90
56332;DHT22;42237;53.340;6.812;2022-10-12T14:52:47;14.00;99.90
56332;DHT22;42237;53.340;6.812;2022-10-12T14:55:15;14.00;99.90
56332;DHT22;42237;53.340;6.812;2022-10-12T14:57:42;14.00;99.90
56332;DHT22;42237;53.340;6.812;2022-10-12T15:00:08;13.90;99.90
56332;DHT22;42237;53.340;6.812;2022-10-12T15:02:35;13.90;99.90
56332;DHT22;42237;53.340;6.812;2022-10-12T15:05:03;13.90;99.90
56332;DHT22;42237;53.340;6.812;2022-10-12T15:07:31;13.90;99.90
56332;DHT22;42237;53.340;6.812;2022-10-12T15:09:58;13.90;99.90
56332;DHT22;42237;53.340;6.812;2022-10-12T15:12:25;13.90;99.90
56332;DHT22;42237;53.340;6.812;2022-10-12T15:14:53;13.80;99.90
56332;DHT22;42237;53.340;6.812;2022-10-12T15:17:19;13.80;99.90
56332;DHT22;42237;53.340;6.812;2022-10-12T15:19:47;13.70;99.90
56332;DHT22;42237;53.340;6.812;2022-10-12T15:22:19;13.70;99.90
56332;DHT22;42237;53.340;6.812;2022-10-12T15:24:45;13.60;99.90
56332;DHT22;42237;53.340;6.812;2022-10-12T15:27:11;13.50;99.90
56332;DHT22;42237;53.340;6.812;2022-10-12T15:29:37;13.50;99.90
56332;DHT22;42237;53.340;6.812;2022-10-12T15:32:05;13.50;99.90
56332;DHT22;42237;53.340;6.812;2022-10-12T15:34:31;13.40;99.90
56332;DHT22;42237;53.340;6.812;2022-10-12T15:36:57;13.30;99.90
56332;DHT22;42237;53.340;6.812;2022-10-12T15:39:22;13.30;99.90
56332;DHT22;42237;53.340;6.812;2022-10-12T15:41:48;13.30;99.90
56332;DHT22;42237;53.340;6.812;2022-10-12T15:44:15;13.20;99.90
56332;DHT22;42237;53.340;6.812;2022-10-12T15:46:41;13.20;99.90
56332;DHT22;42237;53.340;6.812;2022-10-12T15:49:08;13.20;99.90
56332;DHT22;42237;53.340;6.812;2022-10-12T15:51:40;13.10;99.90
56332;DHT22;42237;53.340;6.812;2022-10-12T15:54:10;13.10;99.90
56332;DHT22;42237;53.340;6.812;2022-10-12T15:56:36;13.10;99.90
56332;DHT22;42237;53.340;6.812;2022-10-12T15:59:02;13.00;99.90
56332;DHT22;42237;53.340;6.812;2022-10-12T16:01:28;13.00;99.90
56332;DHT22;42237;53.340;6.812;2022-10-12T16:03:53;13.00;99.90
56332;DHT22;42237;53.340;6.812;2022-10-12T16:06:20;12.90;99.90
56332;DHT22;42237;53.340;6.812;2022-10-12T16:08:45;12.90;99.90
56332;DHT22;42237;53.340;6.812;2022-10-12T16:11:13;12.80;99.90
56332;DHT22;42237;53.340;6.812;2022-10-12T16:13:40;12.80;99.90
56332;DHT22;42237;53.340;6.812;2022-10-12T16:16:06;12.80;99.90
56332;DHT22;42237;53.340;6.812;2022-10-12T16:18:32;12.80;99.90
56332;DHT22;42237;53.340;6.812;2022-10-12T16:20:57;12.70;99.90
56332;DHT22;42237;53.340;6.812;2022-10-12T16:23:29;12.70;99.90
56332;DHT22;42237;53.340;6.812;2022-10-12T16:25:55;12.70;99.90
56332;DHT22;42237;53.340;6.812;2022-10-12T16:28:22;12.70;99.90
56332;DHT22;42237;53.340;6.812;2022-10-12T16:30:48;12.60;99.90
56332;DHT22;42237;53.340;6.812;2022-10-12T16:33:14;12.60;99.90
56332;DHT22;42237;53.340;6.812;2022-10-12T16:35:41;12.50;99.90
56332;DHT22;42237;53.340;6.812;2022-10-12T16:38:07;12.50;99.90
56332;DHT22;42237;53.340;6.812;2022-10-12T16:40:34;12.40;99.90
56332;DHT22;42237;53.340;6.812;2022-10-12T16:43:00;12.30;99.90
56332;DHT22;42237;53.340;6.812;2022-10-12T16:45:26;12.20;99.90
56332;DHT22;42237;53.340;6.812;2022-10-12T16:47:51;12.20;99.90
56332;DHT22;42237;53.340;6.812;2022-10-12T16:50:20;12.10;99.90
56332;DHT22;42237;53.340;6.812;2022-10-12T16:52:46;12.00;99.90
56332;DHT22;42237;53.340;6.812;2022-10-12T16:55:12;12.00;99.90
56332;DHT22;42237;53.340;6.812;2022-10-12T16:57:38;12.00;99.90
56332;DHT22;42237;53.340;6.812;2022-10-12T17:00:06;11.90;99.90
56332;DHT22;42237;53.340;6.812;2022-10-12T17:02:32;11.90;99.90
56332;DHT22;42237;53.340;6.812;2022-10-12T17:04:58;11.80;99.90
56332;DHT22;42237;53.340;6.812;2022-10-12T17:07:24;11.80;99.90
56332;DHT22;42237;53.340;6.812;2022-10-12T17:09:51;11.80;99.90
56332;DHT22;42237;53.340;6.812;2022-10-12T17:12:17;11.80;99.90
56332;DHT22;42237;53.340;6.812;2022-10-12T17:14:43;11.80;99.90
56332;DHT22;42237;53.340;6.812;2022-10-12T17:17:08;11.80;99.90
56332;DHT22;42237;53.340;6.812;2022-10-12T17:19:35;11.80;99.90
56332;DHT22;42237;53.340;6.812;2022-10-12T17:22:07;11.80;99.90
56332;DHT22;42237;53.340;6.812;2022-10-12T17:24:34;11.70;99.90
56332;DHT22;42237;53.340;6.812;2022-10-12T17:27:02;11.70;99.90
56332;DHT22;42237;53.340;6.812;2022-10-12T17:29:29;11.60;99.90
56332;DHT22;42237;53.340;6.812;2022-10-12T17:31:56;11.40;99.90
56332;DHT22;42237;53.340;6.812;2022-10-12T17:34:27;11.30;99.90
56332;DHT22;42237;53.340;6.812;2022-10-12T17:36:54;11.30;99.90
56332;DHT22;42237;53.340;6.812;2022-10-12T17:39:22;11.20;99.90
56332;DHT22;42237;53.340;6.812;2022-10-12T17:41:48;11.20;99.90
56332;DHT22;42237;53.340;6.812;2022-10-12T17:44:14;11.10;99.90
56332;DHT22;42237;53.340;6.812;2022-10-12T17:46:40;11.00;99.90